Time;durP1;ratioP1;P1;durP2;ratioP2;P2;SDS_P1;SDS_P2;PMS_P1;PMS_P2;Temp;Humidity;BMP_temperature;BMP_pressure;BME280_temperature;BME280_humidity;BME280_pressure;Samples;Min_cycle;Max_cycle;Signal;HPM_P1;HPM_P2
2022/07/13 00:01:18;;;;;;;;;;;;;;;;;;5076007;28;19916;-41
2022/07/13 00:03:43;;;;;;;;;;;;;;;;;;5076035;28;19970;-42
2022/07/13 00:06:08;;;;;;;;;;;;;;;;;;5076023;28;20359;-41
2022/07/13 00:08:33;;;;;;;;;;;;;;;;;;5072346;28;20287;-41
2022/07/13 00:10:58;;;;;;;;;;;;;;;;;;5074980;28;19920;-42
2022/07/13 00:13:23;;;;;;;;;;;;;;;;;;5075807;28;19908;-41
2022/07/13 00:15:48;;;;;;;;;;;;;;;;;;5076455;28;19916;-41
2022/07/13 00:18:14;;;;;;;;;;;;;;;;;;5075780;28;19915;-41
2022/07/13 00:20:39;;;;;;;;;;;;;;;;;;5076143;28;19971;-42
2022/07/13 00:23:04;;;;;;;;;;;;;;;;;;5075768;28;19962;-42
2022/07/13 00:25:29;;;;;;;;;;;;;;;;;;5075674;28;19912;-41
2022/07/13 00:27:54;;;;;;;;;;;;;;;;;;5075840;28;19908;-41
2022/07/13 00:30:19;;;;;;;;;;;;;;;;;;5075707;28;20003;-41
2022/07/13 00:32:44;;;;;;;;;;;;;;;;;;5075757;28;19908;-41
2022/07/13 00:35:09;;;;;;;;;;;;;;;;;;5075669;28;19919;-41
2022/07/13 00:37:34;;;;;;;;;;;;;;;;;;5075280;28;20414;-41
2022/07/13 00:40:00;;;;;;;;;;;;;;;;;;5075484;28;19908;-42
2022/07/13 00:42:25;;;;;;;;;;;;;;;;;;5074893;28;19905;-41
2022/07/13 00:44:50;;;;;;;;;;;;;;;;;;5075470;28;19912;-41
2022/07/13 00:47:15;;;;;;;;;;;;;;;;;;5075200;28;19913;-41
2022/07/13 00:49:40;;;;;;;;;;;;;;;;;;5075133;28;19919;-41
2022/07/13 00:52:05;;;;;;;;;;;;;;;;;;5075282;28;19909;-41
2022/07/13 00:54:30;;;;;;;;;;;;;;;;;;5075054;28;19908;-41
2022/07/13 00:56:56;;;;;;;;;;;;;;;;;;5075246;28;20282;-41
2022/07/13 00:59:21;;;;;;;;;;;;;;;;;;5075414;28;19908;-41
2022/07/13 01:01:46;;;;;;;;;;;;;;;;;;5075089;28;19958;-41
2022/07/13 01:04:11;;;;;;;;;;;;;;;;;;5075537;28;20007;-41
2022/07/13 01:06:36;;;;;;;;;;;;;;;;;;5075363;28;19996;-41
2022/07/13 01:09:01;;;;;;;;;;;;;;;;;;5075383;28;19931;-42
2022/07/13 01:11:27;;;;;;;;;;;;;;;;;;5075032;28;20064;-41
2022/07/13 01:13:52;;;;;;;;;;;;;;;;;;5075130;28;20268;-41
2022/07/13 01:16:17;;;;;;;;;;;;;;;;;;5075054;28;19908;-41
2022/07/13 01:18:42;;;;;;;;;;;;;;;;;;5075202;28;19909;-40
2022/07/13 01:21:07;;;;;;;;;;;;;;;;;;5075132;28;19908;-41
2022/07/13 01:23:32;;;;;;;;;;;;;;;;;;5075105;28;19908;-40
2022/07/13 01:25:57;;;;;;;;;;;;;;;;;;5074973;28;20367;-41
2022/07/13 01:28:22;;;;;;;;;;;;;;;;;;5074831;28;19916;-43
2022/07/13 01:30:47;;;;;;;;;;;;;;;;;;5075071;28;19916;-41
2022/07/13 01:33:13;;;;;;;;;;;;;;;;;;5074827;28;19961;-41
2022/07/13 01:35:40;;;;;;;;;;;;;;;;;;5074983;28;19915;-41
2022/07/13 01:38:06;;;;;;;;;;;;;;;;;;5074777;28;19909;-42
2022/07/13 01:40:31;;;;;;;;;;;;;;;;;;5074891;28;20011;-41
2022/07/13 01:42:56;;;;;;;;;;;;;;;;;;5074559;28;19908;-42
2022/07/13 01:45:22;;;;;;;;;;;;;;;;;;5074669;28;20343;-41
2022/07/13 01:47:47;;;;;;;;;;;;;;;;;;5074990;28;20314;-41
2022/07/13 01:50:12;;;;;;;;;;;;;;;;;;5074595;28;19912;-42
2022/07/13 01:52:37;;;;;;;;;;;;;;;;;;5074947;28;20363;-43
2022/07/13 01:55:03;;;;;;;;;;;;;;;;;;5076097;28;20003;-42
2022/07/13 01:57:28;;;;;;;;;;;;;;;;;;5078816;28;19912;-42
2022/07/13 01:59:53;;;;;;;;;;;;;;;;;;5078976;28;19909;-43
2022/07/13 02:02:18;;;;;;;;;;;;;;;;;;5078377;28;19916;-40
2022/07/13 02:04:43;;;;;;;;;;;;;;;;;;5078649;28;19927;-42
2022/07/13 02:07:08;;;;;;;;;;;;;;;;;;5078597;28;19912;-40
2022/07/13 02:09:33;;;;;;;;;;;;;;;;;;5078696;28;19923;-41
2022/07/13 02:11:59;;;;;;;;;;;;;;;;;;5078348;28;19913;-41
2022/07/13 02:14:24;;;;;;;;;;;;;;;;;;5078504;28;20352;-42
2022/07/13 02:16:49;;;;;;;;;;;;;;;;;;5078316;28;20015;-41
2022/07/13 02:19:14;;;;;;;;;;;;;;;;;;5078270;28;19915;-41
2022/07/13 02:21:39;;;;;;;;;;;;;;;;;;5078018;28;19917;-42
2022/07/13 02:24:04;;;;;;;;;;;;;;;;;;5077996;28;19909;-40
2022/07/13 02:26:29;;;;;;;;;;;;;;;;;;5077624;28;19912;-41
2022/07/13 02:28:54;;;;;;;;;;;;;;;;;;5077853;28;19908;-42
2022/07/13 02:31:20;;;;;;;;;;;;;;;;;;5077934;28;20377;-40
2022/07/13 02:33:45;;;;;;;;;;;;;;;;;;5060496;28;19908;-41
2022/07/13 02:36:11;;;;;;;;;;;;;;;;;;5078363;28;19908;-40
2022/07/13 02:38:36;;;;;;;;;;;;;;;;;;5078590;28;19924;-40
2022/07/13 02:41:01;;;;;;;;;;;;;;;;;;5078200;28;19931;-40
2022/07/13 02:43:26;;;;;;;;;;;;;;;;;;5078162;28;20351;-40
2022/07/13 02:45:51;;;;;;;;;;;;;;;;;;5077896;28;19995;-40
2022/07/13 02:48:16;;;;;;;;;;;;;;;;;;5078025;28;19908;-41
2022/07/13 02:50:42;;;;;;;;;;;;;;;;;;5077968;28;19912;-40
2022/07/13 02:53:07;;;;;;;;;;;;;;;;;;5078301;28;19912;-40
2022/07/13 02:55:32;;;;;;;;;;;;;;;;;;5078119;28;19908;-41
2022/07/13 02:57:59;;;;;;;;;;;;;;;;;;5077621;28;19915;-40
2022/07/13 03:00:25;;;;;;;;;;;;;;;;;;5077582;28;19916;-40
2022/07/13 03:02:50;;;;;;;;;;;;;;;;;;5077723;28;20007;-40
2022/07/13 03:05:15;;;;;;;;;;;;;;;;;;5077160;28;19917;-40
2022/07/13 03:07:40;;;;;;;;;;;;;;;;;;5077632;28;19913;-40
2022/07/13 03:10:05;;;;;;;;;;;;;;;;;;5077341;28;19917;-40
2022/07/13 03:12:30;;;;;;;;;;;;;;;;;;5077460;28;20328;-41
2022/07/13 03:14:55;;;;;;;;;;;;;;;;;;5077336;28;19908;-41
2022/07/13 03:17:20;;;;;;;;;;;;;;;;;;5077671;28;19947;-41
2022/07/13 03:19:45;;;;;;;;;;;;;;;;;;5077070;28;20045;-41
2022/07/13 03:22:11;;;;;;;;;;;;;;;;;;5077401;28;19937;-41
2022/07/13 03:24:36;;;;;;;;;;;;;;;;;;5077630;28;20042;-41
2022/07/13 03:27:01;;;;;;;;;;;;;;;;;;5077532;28;19909;-40
2022/07/13 03:29:26;;;;;;;;;;;;;;;;;;5077213;28;20271;-41
2022/07/13 03:31:51;;;;;;;;;;;;;;;;;;5077436;28;19908;-41
2022/07/13 03:34:17;;;;;;;;;;;;;;;;;;5077319;28;19917;-40
2022/07/13 03:36:42;;;;;;;;;;;;;;;;;;5077103;28;19908;-41
2022/07/13 03:39:08;;;;;;;;;;;;;;;;;;5077133;28;19935;-40
2022/07/13 03:41:33;;;;;;;;;;;;;;;;;;5077194;28;20394;-41
2022/07/13 03:43:58;;;;;;;;;;;;;;;;;;5077469;28;19915;-42
2022/07/13 03:46:23;;;;;;;;;;;;;;;;;;5076940;28;19908;-41
2022/07/13 03:48:48;;;;;;;;;;;;;;;;;;5077262;28;19920;-40
2022/07/13 03:51:13;;;;;;;;;;;;;;;;;;5077109;28;19912;-40
2022/07/13 03:53:38;;;;;;;;;;;;;;;;;;5076642;28;19916;-40
2022/07/13 03:56:03;;;;;;;;;;;;;;;;;;5077198;28;19915;-40
2022/07/13 03:58:28;;;;;;;;;;;;;;;;;;5076976;28;19912;-40
2022/07/13 04:00:53;;;;;;;;;;;;;;;;;;5077105;28;19908;-42
2022/07/13 04:03:19;;;;;;;;;;;;;;;;;;5076849;28;19916;-41
2022/07/13 04:05:44;;;;;;;;;;;;;;;;;;5076256;28;20452;-40
2022/07/13 04:08:09;;;;;;;;;;;;;;;;;;5076625;28;19908;-40
2022/07/13 04:10:34;;;;;;;;;;;;;;;;;;5076279;28;19916;-41
2022/07/13 04:12:59;;;;;;;;;;;;;;;;;;5076439;28;19908;-41
2022/07/13 04:15:24;;;;;;;;;;;;;;;;;;5076469;28;20054;-40
2022/07/13 04:17:49;;;;;;;;;;;;;;;;;;5075229;28;19930;-41
2022/07/13 04:20:14;;;;;;;;;;;;;;;;;;5076222;28;19915;-40
2022/07/13 04:22:40;;;;;;;;;;;;;;;;;;5076334;28;19995;-41
2022/07/13 04:25:05;;;;;;;;;;;;;;;;;;5075848;28;19978;-40
2022/07/13 04:27:30;;;;;;;;;;;;;;;;;;5076156;28;19909;-40
2022/07/13 04:29:55;;;;;;;;;;;;;;;;;;5057899;28;19966;-40
2022/07/13 04:32:20;;;;;;;;;;;;;;;;;;5075689;28;19923;-42
2022/07/13 04:34:45;;;;;;;;;;;;;;;;;;5075436;28;19909;-41
2022/07/13 04:37:10;;;;;;;;;;;;;;;;;;5075273;28;19995;-42
2022/07/13 04:39:35;;;;;;;;;;;;;;;;;;5075218;28;19908;-42
2022/07/13 04:42:00;;;;;;;;;;;;;;;;;;5075235;28;19909;-42
2022/07/13 04:44:29;;;;;;;;;;;;;;;;;;5075047;28;19916;-40
2022/07/13 04:46:54;;;;;;;;;;;;;;;;;;5074905;28;19913;-42
2022/07/13 04:49:19;;;;;;;;;;;;;;;;;;5074869;28;20272;-42
2022/07/13 04:51:44;;;;;;;;;;;;;;;;;;5075097;28;19912;-42
2022/07/13 04:54:09;;;;;;;;;;;;;;;;;;5074984;28;19915;-43
2022/07/13 04:56:34;;;;;;;;;;;;;;;;;;5075022;28;19909;-41
2022/07/13 04:59:00;;;;;;;;;;;;;;;;;;5057029;28;19908;-42
2022/07/13 05:01:25;;;;;;;;;;;;;;;;;;5075410;28;19908;-42
2022/07/13 05:03:50;;;;;;;;;;;;;;;;;;5074538;28;19916;-42
2022/07/13 05:06:15;;;;;;;;;;;;;;;;;;5074904;28;20565;-42
2022/07/13 05:08:41;;;;;;;;;;;;;;;;;;5074982;28;19969;-42
2022/07/13 05:11:07;;;;;;;;;;;;;;;;;;5074771;28;19956;-42
2022/07/13 05:13:32;;;;;;;;;;;;;;;;;;5074804;28;19999;-42
2022/07/13 05:15:58;;;;;;;;;;;;;;;;;;5071609;28;20026;-43
2022/07/13 05:18:23;;;;;;;;;;;;;;;;;;5055270;28;19909;-42
2022/07/13 05:20:48;;;;;;;;;;;;;;;;;;5054776;28;19920;-42
2022/07/13 05:23:13;;;;;;;;;;;;;;;;;;5054687;28;19913;-42
2022/07/13 05:25:38;;;;;;;;;;;;;;;;;;5054253;28;19912;-42
2022/07/13 05:28:03;;;;;;;;;;;;;;;;;;5063684;28;19912;-42
2022/07/13 05:30:29;;;;;;;;;;;;;;;;;;5070647;28;19950;-42
2022/07/13 05:32:54;;;;;;;;;;;;;;;;;;5053790;28;19927;-41
2022/07/13 05:35:19;;;;;;;;;;;;;;;;;;5056808;28;19923;-42
2022/07/13 05:37:45;;;;;;;;;;;;;;;;;;5065538;28;19924;-42
2022/07/13 05:40:10;;;;;;;;;;;;;;;;;;5062056;28;19946;-43
2022/07/13 05:42:35;;;;;;;;;;;;;;;;;;5065308;28;19946;-41
2022/07/13 05:45:00;;;;;;;;;;;;;;;;;;5062219;28;19920;-42
2022/07/13 05:47:25;;;;;;;;;;;;;;;;;;5060883;28;19913;-41
2022/07/13 05:49:50;;;;;;;;;;;;;;;;;;5063165;28;19952;-42
2022/07/13 05:52:15;;;;;;;;;;;;;;;;;;5063551;28;20423;-41
2022/07/13 05:54:40;;;;;;;;;;;;;;;;;;5060851;28;20017;-42
2022/07/13 05:57:06;;;;;;;;;;;;;;;;;;5058998;28;19942;-41
2022/07/13 05:59:33;;;;;;;;;;;;;;;;;;5061072;28;19921;-43
2022/07/13 06:01:58;;;;;;;;;;;;;;;;;;5060104;28;20379;-42
2022/07/13 06:04:23;;;;;;;;;;;;;;;;;;5059343;28;19952;-42
2022/07/13 06:06:48;;;;;;;;;;;;;;;;;;5056327;28;20022;-42
2022/07/13 06:09:13;;;;;;;;;;;;;;;;;;5048420;28;19920;-41
2022/07/13 06:11:39;;;;;;;;;;;;;;;;;;5030500;28;19921;-43
2022/07/13 06:14:04;;;;;;;;;;;;;;;;;;5025199;28;19942;-42
2022/07/13 06:16:29;;;;;;;;;;;;;;;;;;5029916;28;19921;-42
2022/07/13 06:18:54;;;;;;;;;;;;;;;;;;5011845;28;19921;-42
2022/07/13 06:21:19;;;;;;;;;;;;;;;;;;4984566;28;19970;-42
2022/07/13 06:23:44;;;;;;;;;;;;;;;;;;4986434;28;19921;-42
2022/07/13 06:26:10;;;;;;;;;;;;;;;;;;4955704;28;20430;-41
2022/07/13 06:28:35;;;;;;;;;;;;;;;;;;4914445;28;20439;-41
2022/07/13 06:31:00;;;;;;;;;;;;;;;;;;4988556;28;19924;-42
2022/07/13 06:33:25;;;;;;;;;;;;;;;;;;5013655;28;19912;-42
2022/07/13 06:35:50;;;;;;;;;;;;;;;;;;5013594;28;20302;-42
2022/07/13 06:38:16;;;;;;;;;;;;;;;;;;5020594;28;19921;-41
2022/07/13 06:40:41;;;;;;;;;;;;;;;;;;5014678;28;19921;-42
2022/07/13 06:43:06;;;;;;;;;;;;;;;;;;5022233;28;19927;-41
2022/07/13 06:45:31;;;;;;;;;;;;;;;;;;4996615;28;20932;-41
2022/07/13 06:47:56;;;;;;;;;;;;;;;;;;4991834;28;20006;-42
2022/07/13 06:50:21;;;;;;;;;;;;;;;;;;5003974;28;19947;-42
2022/07/13 06:52:47;;;;;;;;;;;;;;;;;;4964508;28;20015;-43
2022/07/13 06:55:12;;;;;;;;;;;;;;;;;;4993691;28;19924;-42
2022/07/13 06:57:38;;;;;;;;;;;;;;;;;;4988900;28;19928;-41
2022/07/13 07:00:03;;;;;;;;;;;;;;;;;;4993555;28;20097;-43
2022/07/13 07:02:28;;;;;;;;;;;;;;;;;;5009093;28;19951;-42
2022/07/13 07:04:54;;;;;;;;;;;;;;;;;;5000162;28;20379;-42
2022/07/13 07:07:19;;;;;;;;;;;;;;;;;;5001632;28;19959;-42
2022/07/13 07:09:44;;;;;;;;;;;;;;;;;;4998465;28;20367;-42
2022/07/13 07:12:09;;;;;;;;;;;;;;;;;;4995969;28;19943;-42
2022/07/13 07:14:34;;;;;;;;;;;;;;;;;;5007848;28;19921;-42
2022/07/13 07:17:02;;;;;;;;;;;;;;;;;;4992242;28;20063;-42
2022/07/13 07:19:27;;;;;;;;;;;;;;;;;;4987256;28;19928;-42
2022/07/13 07:21:53;;;;;;;;;;;;;;;;;;5004005;28;19920;-42
2022/07/13 07:24:18;;;;;;;;;;;;;;;;;;5006239;28;19921;-42
2022/07/13 07:26:43;;;;;;;;;;;;;;;;;;4996280;28;19943;-42
2022/07/13 07:29:09;;;;;;;;;;;;;;;;;;4977833;28;19926;-42
2022/07/13 07:31:34;;;;;;;;;;;;;;;;;;4996443;28;19924;-42
2022/07/13 07:33:59;;;;;;;;;;;;;;;;;;4992754;28;19965;-42
2022/07/13 07:36:24;;;;;;;;;;;;;;;;;;4986291;28;22072;-42
2022/07/13 07:38:49;;;;;;;;;;;;;;;;;;4986675;28;21249;-42
2022/07/13 07:41:15;;;;;;;;;;;;;;;;;;4990626;28;22239;-43
2022/07/13 07:43:40;;;;;;;;;;;;;;;;;;4977728;28;19927;-42
2022/07/13 07:46:05;;;;;;;;;;;;;;;;;;4977315;28;20398;-42
2022/07/13 07:48:30;;;;;;;;;;;;;;;;;;4980670;28;21131;-43
2022/07/13 07:50:56;;;;;;;;;;;;;;;;;;4993235;28;20375;-42
2022/07/13 07:53:21;;;;;;;;;;;;;;;;;;4980749;28;21630;-42
2022/07/13 07:55:46;;;;;;;;;;;;;;;;;;4957929;28;21221;-43
2022/07/13 07:58:13;;;;;;;;;;;;;;;;;;4979610;28;19998;-43
2022/07/13 08:00:38;;;;;;;;;;;;;;;;;;4947892;28;20039;-42
2022/07/13 08:03:04;;;;;;;;;;;;;;;;;;4952362;28;20085;-41
2022/07/13 08:05:29;;;;;;;;;;;;;;;;;;5018035;22;20689;-41
2022/07/13 08:07:54;;;;;;;;;;;;;;;;;;4965016;28;20093;-41
2022/07/13 08:10:19;;;;;;;;;;;;;;;;;;4975091;28;20013;-42
2022/07/13 08:12:45;;;;;;;;;;;;;;;;;;4965740;28;19948;-41
2022/07/13 08:15:10;;;;;;;;;;;;;;;;;;4952763;28;19946;-41
2022/07/13 08:17:35;;;;;;;;;;;;;;;;;;4997344;28;19927;-41
2022/07/13 08:20:00;;;;;;;;;;;;;;;;;;4966953;28;20371;-42
2022/07/13 08:22:25;;;;;;;;;;;;;;;;;;4987092;28;19927;-41
2022/07/13 08:24:50;;;;;;;;;;;;;;;;;;4999775;28;21126;-42
2022/07/13 08:27:15;;;;;;;;;;;;;;;;;;4973813;28;20690;-42
2022/07/13 08:29:40;;;;;;;;;;;;;;;;;;4986209;28;20013;-42
2022/07/13 08:32:06;;;;;;;;;;;;;;;;;;4978473;28;24487;-42
2022/07/13 08:39:59;;;;;;;;;;;;;;;;;;4992767;28;19970;-42
2022/07/13 08:42:24;;;;;;;;;;;;;;;;;;5001165;28;19920;-42
2022/07/13 08:44:49;;;;;;;;;;;;;;;;;;4995358;28;19920;-42
2022/07/13 08:47:14;;;;;;;;;;;;;;;;;;4983770;28;19921;-41
2022/07/13 08:49:40;;;;;;;;;;;;;;;;;;4985620;28;19921;-42
2022/07/13 08:52:06;;;;;;;;;;;;;;;;;;4980227;28;19997;-42
2022/07/13 08:54:31;;;;;;;;;;;;;;;;;;4969636;28;20630;-41
2022/07/13 08:56:56;;;;;;;;;;;;;;;;;;4977156;28;19920;-41
2022/07/13 08:59:21;;;;;;;;;;;;;;;;;;4976950;28;22956;-42
2022/07/13 09:01:46;;;;;;;;;;;;;;;;;;4977517;28;22011;-42
2022/07/13 09:04:11;;;;;;;;;;;;;;;;;;4987252;28;20009;-43
2022/07/13 09:06:36;;;;;;;;;;;;;;;;;;4992639;28;19920;-43
2022/07/13 09:09:01;;;;;;;;;;;;;;;;;;4983236;28;19920;-42
2022/07/13 09:11:26;;;;;;;;;;;;;;;;;;4987088;28;19973;-43
2022/07/13 09:13:51;;;;;;;;;;;;;;;;;;4989171;28;19920;-43
2022/07/13 09:16:17;;;;;;;;;;;;;;;;;;5002643;28;20334;-42
2022/07/13 09:18:42;;;;;;;;;;;;;;;;;;5007896;28;19946;-43
2022/07/13 09:21:07;;;;;;;;;;;;;;;;;;4991736;28;19960;-43
2022/07/13 09:23:32;;;;;;;;;;;;;;;;;;4972186;28;19921;-42
2022/07/13 09:25:57;;;;;;;;;;;;;;;;;;4981111;28;19958;-43
2022/07/13 09:28:22;;;;;;;;;;;;;;;;;;4962908;28;19916;-44
2022/07/13 09:30:48;;;;;;;;;;;;;;;;;;4976539;28;19936;-43
2022/07/13 09:33:13;;;;;;;;;;;;;;;;;;4982921;28;20039;-41
2022/07/13 09:35:38;;;;;;;;;;;;;;;;;;4981621;28;19927;-41
2022/07/13 09:38:03;;;;;;;;;;;;;;;;;;4979953;28;19960;-42
2022/07/13 09:40:28;;;;;;;;;;;;;;;;;;4995050;28;19925;-42
2022/07/13 09:46:08;;;;;;;;;;;;;;;;;;4996280;28;19924;-42
2022/07/13 09:48:22;;;;;;;;;;;;;;;;;;5000104;28;19928;-42
2022/07/13 09:50:47;;;;;;;;;;;;;;;;;;4997552;28;19968;-42
2022/07/13 09:53:13;;;;;;;;;;;;;;;;;;4995487;28;19920;-41
2022/07/13 09:55:42;;;;;;;;;;;;;;;;;;5002798;28;19921;-41
2022/07/13 09:58:07;;;;;;;;;;;;;;;;;;4987537;28;19939;-43
2022/07/13 10:00:32;;;;;;;;;;;;;;;;;;5006369;28;19960;-42
2022/07/13 10:02:58;;;;;;;;;;;;;;;;;;5003811;28;19995;-43
2022/07/13 10:05:23;;;;;;;;;;;;;;;;;;4981815;28;20017;-42
2022/07/13 10:07:48;;;;;;;;;;;;;;;;;;5006497;28;20007;-42
2022/07/13 10:10:17;;;;;;;;;;;;;;;;;;5004927;28;19924;-42
2022/07/13 10:12:42;;;;;;;;;;;;;;;;;;5015186;28;19959;-42
2022/07/13 10:15:07;;;;;;;;;;;;;;;;;;5004674;28;22968;-42
2022/07/13 10:17:33;;;;;;;;;;;;;;;;;;4999980;28;20584;-41
2022/07/13 10:19:58;;;;;;;;;;;;;;;;;;4992482;28;19954;-42
2022/07/13 10:22:23;;;;;;;;;;;;;;;;;;5009028;28;20008;-42
2022/07/13 10:24:48;;;;;;;;;;;;;;;;;;4997952;28;19920;-42
2022/07/13 10:27:13;;;;;;;;;;;;;;;;;;4982407;28;23207;-42
2022/07/13 10:29:38;;;;;;;;;;;;;;;;;;4991238;28;19924;-42
2022/07/13 10:32:03;;;;;;;;;;;;;;;;;;4946846;28;20054;-43
2022/07/13 10:34:28;;;;;;;;;;;;;;;;;;4989786;28;19921;-43
2022/07/13 10:36:55;;;;;;;;;;;;;;;;;;5018518;28;19924;-42
2022/07/13 10:39:22;;;;;;;;;;;;;;;;;;5032728;28;20287;-42
2022/07/13 10:41:47;;;;;;;;;;;;;;;;;;5040245;28;19917;-42
2022/07/13 10:44:12;;;;;;;;;;;;;;;;;;5012037;28;19928;-43
2022/07/13 10:46:37;;;;;;;;;;;;;;;;;;5013997;28;19931;-42
2022/07/13 10:49:02;;;;;;;;;;;;;;;;;;5033997;28;19916;-41
2022/07/13 10:51:27;;;;;;;;;;;;;;;;;;5026916;28;20609;-42
2022/07/13 10:53:53;;;;;;;;;;;;;;;;;;5022028;28;19921;-43
2022/07/13 10:56:18;;;;;;;;;;;;;;;;;;5035062;28;19924;-42
2022/07/13 10:58:43;;;;;;;;;;;;;;;;;;5027785;28;19920;-42
2022/07/13 11:01:08;;;;;;;;;;;;;;;;;;5039551;28;19968;-42
2022/07/13 11:03:43;;;;;;;;;;;;;;;;;;5044970;28;20024;-42
2022/07/13 11:06:09;;;;;;;;;;;;;;;;;;5040814;28;20379;-42
2022/07/13 11:08:34;;;;;;;;;;;;;;;;;;5053726;28;19971;-44
2022/07/13 11:11:02;;;;;;;;;;;;;;;;;;5048647;28;19917;-42
2022/07/13 11:13:28;;;;;;;;;;;;;;;;;;5052649;28;21333;-42
2022/07/13 11:15:53;;;;;;;;;;;;;;;;;;5051508;28;19967;-44
2022/07/13 11:18:19;;;;;;;;;;;;;;;;;;5056660;28;20261;-42
2022/07/13 11:20:44;;;;;;;;;;;;;;;;;;5055587;28;20241;-42
2022/07/13 11:25:55;;;;;;;;;;;;;;;;;;5053247;28;19928;-43
2022/07/13 11:28:20;;;;;;;;;;;;;;;;;;5062088;28;20283;-42
2022/07/13 11:30:45;;;;;;;;;;;;;;;;;;5040624;28;19920;-43
2022/07/13 11:33:11;;;;;;;;;;;;;;;;;;5047637;28;19912;-43
2022/07/13 11:35:36;;;;;;;;;;;;;;;;;;5056602;28;20291;-42
2022/07/13 11:38:02;;;;;;;;;;;;;;;;;;5061762;28;19921;-43
2022/07/13 11:40:27;;;;;;;;;;;;;;;;;;5063053;28;19942;-42
2022/07/13 11:42:53;;;;;;;;;;;;;;;;;;5063957;28;19951;-42
2022/07/13 11:45:18;;;;;;;;;;;;;;;;;;5059705;28;19921;-43
2022/07/13 11:47:44;;;;;;;;;;;;;;;;;;5059614;28;19939;-42
2022/07/13 11:50:09;;;;;;;;;;;;;;;;;;5059741;28;19961;-42
2022/07/13 11:52:34;;;;;;;;;;;;;;;;;;5055804;28;20295;-42
2022/07/13 11:54:59;;;;;;;;;;;;;;;;;;5061941;28;19961;-42
2022/07/13 11:57:24;;;;;;;;;;;;;;;;;;5062341;28;19962;-42
2022/07/13 11:59:49;;;;;;;;;;;;;;;;;;5060000;28;20029;-42
2022/07/13 12:02:15;;;;;;;;;;;;;;;;;;5055274;28;19966;-42
2022/07/13 12:04:40;;;;;;;;;;;;;;;;;;5067912;28;19946;-43
2022/07/13 12:07:05;;;;;;;;;;;;;;;;;;5059000;28;20011;-44
2022/07/13 12:09:30;;;;;;;;;;;;;;;;;;5062538;28;19994;-42
2022/07/13 12:11:55;;;;;;;;;;;;;;;;;;5059303;28;19924;-42
2022/07/13 12:14:20;;;;;;;;;;;;;;;;;;5065365;28;19913;-42
2022/07/13 12:16:46;;;;;;;;;;;;;;;;;;5064061;28;19913;-42
2022/07/13 12:19:11;;;;;;;;;;;;;;;;;;5061017;28;19952;-43
2022/07/13 12:21:36;;;;;;;;;;;;;;;;;;5059518;28;19916;-41
2022/07/13 12:24:01;;;;;;;;;;;;;;;;;;5064566;28;19912;-42
2022/07/13 12:26:27;;;;;;;;;;;;;;;;;;5062228;28;20781;-42
2022/07/13 12:28:52;;;;;;;;;;;;;;;;;;5054114;28;19919;-42
2022/07/13 12:31:18;;;;;;;;;;;;;;;;;;5058389;28;20074;-42
2022/07/13 12:33:43;;;;;;;;;;;;;;;;;;5059897;28;19931;-42
2022/07/13 12:36:09;;;;;;;;;;;;;;;;;;5060983;28;19912;-42
2022/07/13 12:38:34;;;;;;;;;;;;;;;;;;5058703;28;19916;-43
2022/07/13 12:41:01;;;;;;;;;;;;;;;;;;5063320;28;19913;-42
2022/07/13 12:43:26;;;;;;;;;;;;;;;;;;5062855;28;19917;-41
2022/07/13 12:45:51;;;;;;;;;;;;;;;;;;5059536;28;19919;-42
2022/07/13 12:48:16;;;;;;;;;;;;;;;;;;5064746;28;19927;-42
2022/07/13 12:50:42;;;;;;;;;;;;;;;;;;5066552;28;19957;-43
2022/07/13 12:53:07;;;;;;;;;;;;;;;;;;5058763;28;23250;-41
2022/07/13 12:55:32;;;;;;;;;;;;;;;;;;5056597;28;20006;-42
2022/07/13 12:57:57;;;;;;;;;;;;;;;;;;5058134;28;20603;-43
2022/07/13 13:00:23;;;;;;;;;;;;;;;;;;5060822;28;20433;-42
2022/07/13 13:02:48;;;;;;;;;;;;;;;;;;5062658;28;21084;-42
2022/07/13 13:05:13;;;;;;;;;;;;;;;;;;5067575;28;19989;-42
2022/07/13 13:07:38;;;;;;;;;;;;;;;;;;5067721;28;19913;-42
2022/07/13 13:10:03;;;;;;;;;;;;;;;;;;5069825;28;19916;-42
2022/07/13 13:12:28;;;;;;;;;;;;;;;;;;5066594;28;19942;-41
2022/07/13 13:14:53;;;;;;;;;;;;;;;;;;5059100;28;19913;-42
2022/07/13 13:17:18;;;;;;;;;;;;;;;;;;5065539;28;19912;-43
2022/07/13 13:19:43;;;;;;;;;;;;;;;;;;5062331;28;20359;-42
2022/07/13 13:22:08;;;;;;;;;;;;;;;;;;5064147;28;20343;-42
2022/07/13 13:24:34;;;;;;;;;;;;;;;;;;5058716;28;20028;-43
2022/07/13 13:26:59;;;;;;;;;;;;;;;;;;5063367;28;19919;-42
2022/07/13 13:32:07;;;;;;;;;;;;;;;;;;5059040;28;19930;-44
2022/07/13 13:34:33;;;;;;;;;;;;;;;;;;5059019;28;20379;-42
2022/07/13 13:36:58;;;;;;;;;;;;;;;;;;5063145;28;19963;-42
2022/07/13 13:39:23;;;;;;;;;;;;;;;;;;5063195;28;20011;-42
2022/07/13 13:41:48;;;;;;;;;;;;;;;;;;5060546;28;19976;-42
2022/07/13 13:44:13;;;;;;;;;;;;;;;;;;5062308;28;20260;-43
2022/07/13 13:46:38;;;;;;;;;;;;;;;;;;5066077;28;19920;-43
2022/07/13 13:49:03;;;;;;;;;;;;;;;;;;5065667;28;19999;-42
2022/07/13 13:51:28;;;;;;;;;;;;;;;;;;5064914;28;19925;-43
2022/07/13 13:53:54;;;;;;;;;;;;;;;;;;5063000;28;20382;-42
2022/07/13 13:56:19;;;;;;;;;;;;;;;;;;5062730;28;19927;-41
2022/07/13 13:58:44;;;;;;;;;;;;;;;;;;5062210;28;19913;-42
2022/07/13 14:01:09;;;;;;;;;;;;;;;;;;5063831;28;19920;-41
2022/07/13 14:03:38;;;;;;;;;;;;;;;;;;5064423;28;19920;-42
2022/07/13 14:06:03;;;;;;;;;;;;;;;;;;5060998;28;23361;-41
2022/07/13 14:08:28;;;;;;;;;;;;;;;;;;5071248;28;20031;-42
2022/07/13 14:10:55;;;;;;;;;;;;;;;;;;5072673;28;19922;-42
2022/07/13 14:13:20;;;;;;;;;;;;;;;;;;5067612;28;19921;-41
2022/07/13 14:15:45;;;;;;;;;;;;;;;;;;5070436;28;19927;-41
2022/07/13 14:18:11;;;;;;;;;;;;;;;;;;5066209;28;19958;-41
2022/07/13 14:20:36;;;;;;;;;;;;;;;;;;5075007;28;19978;-42
2022/07/13 14:23:01;;;;;;;;;;;;;;;;;;5076727;28;19935;-41
2022/07/13 14:25:26;;;;;;;;;;;;;;;;;;5066950;28;19948;-42
2022/07/13 14:27:51;;;;;;;;;;;;;;;;;;5067492;28;19985;-42
2022/07/13 14:30:16;;;;;;;;;;;;;;;;;;5067907;28;20463;-42
2022/07/13 14:32:42;;;;;;;;;;;;;;;;;;5063382;28;19919;-41
2022/07/13 14:35:08;;;;;;;;;;;;;;;;;;5069441;28;19924;-42
2022/07/13 14:37:34;;;;;;;;;;;;;;;;;;5065454;28;19908;-43
2022/07/13 14:39:59;;;;;;;;;;;;;;;;;;5066601;28;20275;-42
2022/07/13 14:42:24;;;;;;;;;;;;;;;;;;5066382;28;19912;-42
2022/07/13 14:44:49;;;;;;;;;;;;;;;;;;5073128;28;20282;-42
2022/07/13 14:47:14;;;;;;;;;;;;;;;;;;5069086;28;20310;-42
2022/07/13 14:49:40;;;;;;;;;;;;;;;;;;5066672;28;19935;-43
2022/07/13 14:52:05;;;;;;;;;;;;;;;;;;5066027;28;19939;-43
2022/07/13 14:54:30;;;;;;;;;;;;;;;;;;5066580;28;20052;-42
2022/07/13 14:56:57;;;;;;;;;;;;;;;;;;5066726;28;19912;-42
2022/07/13 14:59:23;;;;;;;;;;;;;;;;;;5072638;28;19912;-43
2022/07/13 15:01:48;;;;;;;;;;;;;;;;;;5064244;28;19920;-42
2022/07/13 15:04:16;;;;;;;;;;;;;;;;;;5062777;28;19928;-44
2022/07/13 15:06:43;;;;;;;;;;;;;;;;;;5069896;28;19917;-42
2022/07/13 15:09:08;;;;;;;;;;;;;;;;;;5057604;28;19920;-42
2022/07/13 15:11:34;;;;;;;;;;;;;;;;;;5069046;28;19962;-42
2022/07/13 15:13:59;;;;;;;;;;;;;;;;;;5067516;28;19970;-43
2022/07/13 15:16:24;;;;;;;;;;;;;;;;;;5065407;28;20001;-43
2022/07/13 15:18:49;;;;;;;;;;;;;;;;;;5063774;28;19913;-42
2022/07/13 15:21:14;;;;;;;;;;;;;;;;;;5070506;28;19919;-42
2022/07/13 15:23:40;;;;;;;;;;;;;;;;;;5059381;28;19919;-43
2022/07/13 15:26:05;;;;;;;;;;;;;;;;;;5065604;28;19920;-42
2022/07/13 15:28:30;;;;;;;;;;;;;;;;;;5063466;28;20275;-42
2022/07/13 15:30:55;;;;;;;;;;;;;;;;;;5064264;28;20613;-43
2022/07/13 15:33:21;;;;;;;;;;;;;;;;;;5065621;28;19958;-44
2022/07/13 15:35:46;;;;;;;;;;;;;;;;;;5066981;28;20023;-43
2022/07/13 15:38:11;;;;;;;;;;;;;;;;;;5070082;28;19948;-43
2022/07/13 15:43:20;;;;;;;;;;;;;;;;;;5076672;28;19962;-43
2022/07/13 15:45:45;;;;;;;;;;;;;;;;;;5075524;28;19921;-42
2022/07/13 15:48:10;;;;;;;;;;;;;;;;;;5075315;28;20688;-43
2022/07/13 15:50:35;;;;;;;;;;;;;;;;;;5075718;28;20578;-42
2022/07/13 15:53:01;;;;;;;;;;;;;;;;;;5071770;28;19952;-43
2022/07/13 15:55:26;;;;;;;;;;;;;;;;;;5076264;28;19932;-42
2022/07/13 15:57:51;;;;;;;;;;;;;;;;;;5074774;28;19912;-42
2022/07/13 16:00:16;;;;;;;;;;;;;;;;;;5075596;28;19935;-42
2022/07/13 16:02:41;;;;;;;;;;;;;;;;;;5074280;28;19920;-42
2022/07/13 16:05:06;;;;;;;;;;;;;;;;;;5075481;28;20426;-43
2022/07/13 16:07:31;;;;;;;;;;;;;;;;;;5075549;28;20274;-42
2022/07/13 16:09:58;;;;;;;;;;;;;;;;;;5075736;28;20278;-41
2022/07/13 16:12:23;;;;;;;;;;;;;;;;;;5075712;28;19908;-41
2022/07/13 16:14:48;;;;;;;;;;;;;;;;;;5075808;28;20021;-41
2022/07/13 16:17:13;;;;;;;;;;;;;;;;;;5076136;28;19915;-42
2022/07/13 16:19:38;;;;;;;;;;;;;;;;;;5075841;28;19916;-41
2022/07/13 16:22:05;;;;;;;;;;;;;;;;;;5075130;28;20154;-41
2022/07/13 16:24:30;;;;;;;;;;;;;;;;;;5075780;28;19908;-41
2022/07/13 16:26:55;;;;;;;;;;;;;;;;;;5075836;28;19909;-42
2022/07/13 16:29:20;;;;;;;;;;;;;;;;;;5075621;28;19946;-42
2022/07/13 16:31:46;;;;;;;;;;;;;;;;;;5075425;28;19920;-42
2022/07/13 16:34:11;;;;;;;;;;;;;;;;;;5075343;28;19908;-44
2022/07/13 16:36:36;;;;;;;;;;;;;;;;;;5075413;28;19917;-42
2022/07/13 16:39:01;;;;;;;;;;;;;;;;;;5075377;28;19962;-41
2022/07/13 16:41:26;;;;;;;;;;;;;;;;;;5075205;28;19909;-42
2022/07/13 16:43:51;;;;;;;;;;;;;;;;;;5075224;28;19999;-42
2022/07/13 16:46:16;;;;;;;;;;;;;;;;;;5073566;28;19965;-42
2022/07/13 16:48:41;;;;;;;;;;;;;;;;;;5075285;28;20352;-42